FBT64F LFPG-EHAM
Flight info
| Callsign | FBT64F |
|---|---|
| Flight time | 0h 49m |
| Altitude | 30000 |
| Route | NURMO DCT CMB DCT VEKIN DCT ADUTO N873 FERDI Y18 DENUT |
| Aircraft | A20N/M-SDE2E3FGHIRWXY/LB1 |
Departure
| Time | 2026-04-30 06:15 |
|---|---|
| Airport | Charles de Gaulle International Airport (LFPG) |
Arrival
| Time | 2026-04-30 07:04 |
|---|---|
| Airport | Amsterdam Airport Schiphol (EHAM) |
| Time | Latitude | Longitude | Altitude | Speed | Heading |
|---|---|---|---|---|---|
| 2026-04-30 06:15 | 49.23995 | 2.70501 | 16758 ft | 375 kts | 6° |
| 2026-04-30 06:15 | 49.26640 | 2.70730 | 17848 ft | 381 kts | 6° |
| 2026-04-30 06:15 | 49.29300 | 2.70958 | 18655 ft | 387 kts | 6° |
| 2026-04-30 06:15 | 49.32008 | 2.71190 | 18988 ft | 389 kts | 6° |
| 2026-04-30 06:16 | 49.34725 | 2.71419 | 19163 ft | 390 kts | 6° |
| 2026-04-30 06:16 | 49.37475 | 2.71653 | 19691 ft | 396 kts | 6° |
| 2026-04-30 06:16 | 49.40221 | 2.71884 | 20827 ft | 394 kts | 7° |
| 2026-04-30 06:16 | 49.42942 | 2.72114 | 21794 ft | 398 kts | 7° |
| 2026-04-30 06:17 | 49.45766 | 2.72356 | 22721 ft | 403 kts | 7° |
| 2026-04-30 06:17 | 49.48602 | 2.72597 | 23670 ft | 407 kts | 7° |
| 2026-04-30 06:17 | 49.51464 | 2.72841 | 24443 ft | 413 kts | 7° |
| 2026-04-30 06:17 | 49.54361 | 2.73090 | 25163 ft | 418 kts | 7° |
| 2026-04-30 06:18 | 49.57249 | 2.73338 | 25860 ft | 423 kts | 7° |
| 2026-04-30 06:18 | 49.60210 | 2.73592 | 26564 ft | 428 kts | 7° |
| 2026-04-30 06:18 | 49.63177 | 2.73846 | 27222 ft | 433 kts | 7° |
| 2026-04-30 06:18 | 49.66233 | 2.74108 | 27889 ft | 438 kts | 7° |
| 2026-04-30 06:19 | 49.69286 | 2.74371 | 28503 ft | 443 kts | 7° |
| 2026-04-30 06:19 | 49.72434 | 2.74642 | 29072 ft | 448 kts | 7° |
| 2026-04-30 06:19 | 49.75564 | 2.74913 | 29670 ft | 452 kts | 7° |
| 2026-04-30 06:19 | 49.78719 | 2.75216 | 30121 ft | 454 kts | 11° |
| 2026-04-30 06:20 | 49.81803 | 2.76117 | 30230 ft | 449 kts | 20° |
| 2026-04-30 06:20 | 49.87446 | 2.79962 | 30235 ft | 441 kts | 31° |
| 2026-04-30 06:21 | 49.92899 | 2.84185 | 30238 ft | 441 kts | 31° |
| 2026-04-30 06:21 | 49.98415 | 2.88501 | 30236 ft | 441 kts | 31° |
| 2026-04-30 06:22 | 50.03889 | 2.92836 | 30237 ft | 440 kts | 31° |
| 2026-04-30 06:22 | 50.09349 | 2.97180 | 30240 ft | 440 kts | 31° |
| 2026-04-30 06:23 | 50.14764 | 3.01499 | 30241 ft | 439 kts | 31° |
| 2026-04-30 06:23 | 50.20193 | 3.05838 | 30248 ft | 439 kts | 31° |
| 2026-04-30 06:24 | 50.25675 | 3.10231 | 30261 ft | 438 kts | 31° |
| 2026-04-30 06:24 | 50.31100 | 3.14590 | 30272 ft | 438 kts | 31° |
| 2026-04-30 06:25 | 50.36403 | 3.18860 | 30278 ft | 438 kts | 31° |
| 2026-04-30 06:25 | 50.42005 | 3.23389 | 30289 ft | 438 kts | 31° |
| 2026-04-30 06:26 | 50.47430 | 3.27783 | 30289 ft | 437 kts | 31° |
| 2026-04-30 06:26 | 50.52831 | 3.32168 | 30290 ft | 437 kts | 31° |
| 2026-04-30 06:27 | 50.58236 | 3.36567 | 30291 ft | 437 kts | 31° |
| 2026-04-30 06:27 | 50.63642 | 3.40977 | 30294 ft | 437 kts | 31° |
| 2026-04-30 06:28 | 50.69041 | 3.45394 | 30294 ft | 437 kts | 31° |
| 2026-04-30 06:28 | 50.74425 | 3.49809 | 30298 ft | 437 kts | 31° |
| 2026-04-30 06:29 | 50.79933 | 3.54338 | 30301 ft | 437 kts | 31° |
| 2026-04-30 06:29 | 50.85280 | 3.58746 | 30304 ft | 436 kts | 31° |
| 2026-04-30 06:30 | 50.90837 | 3.62640 | 30307 ft | 442 kts | 20° |
| 2026-04-30 06:30 | 50.96046 | 3.64007 | 30205 ft | 449 kts | 6° |
| 2026-04-30 06:30 | 50.99161 | 3.64185 | 29925 ft | 447 kts | 6° |
| 2026-04-30 06:31 | 51.02271 | 3.64378 | 29561 ft | 445 kts | 6° |
| 2026-04-30 06:31 | 51.05347 | 3.64579 | 28765 ft | 444 kts | 6° |
| 2026-04-30 06:31 | 51.08460 | 3.64781 | 28038 ft | 438 kts | 6° |
| 2026-04-30 06:31 | 51.11483 | 3.64976 | 27312 ft | 431 kts | 5° |
| 2026-04-30 06:32 | 51.14474 | 3.65168 | 26545 ft | 426 kts | 5° |
| 2026-04-30 06:32 | 51.17410 | 3.65358 | 25850 ft | 420 kts | 5° |
| 2026-04-30 06:32 | 51.20347 | 3.65548 | 25114 ft | 415 kts | 5° |
| 2026-04-30 06:32 | 51.23185 | 3.65731 | 24566 ft | 408 kts | 5° |
| 2026-04-30 06:33 | 51.26027 | 3.65708 | 23858 ft | 410 kts | 1° |
| 2026-04-30 06:33 | 51.28866 | 3.65612 | 23379 ft | 404 kts | 1° |
| 2026-04-30 06:33 | 51.31705 | 3.65520 | 22932 ft | 404 kts | 1° |
| 2026-04-30 06:33 | 51.34518 | 3.65432 | 22472 ft | 402 kts | 1° |
| 2026-04-30 06:34 | 51.37305 | 3.65346 | 21999 ft | 399 kts | 1° |
| 2026-04-30 06:34 | 51.40040 | 3.65261 | 21545 ft | 396 kts | 2° |
| 2026-04-30 06:34 | 51.42815 | 3.65176 | 21080 ft | 394 kts | 2° |
| 2026-04-30 06:34 | 51.45457 | 3.65095 | 20647 ft | 392 kts | 2° |
| 2026-04-30 06:35 | 51.48133 | 3.65014 | 20201 ft | 390 kts | 2° |
| 2026-04-30 06:35 | 51.50841 | 3.64931 | 19749 ft | 388 kts | 2° |
| 2026-04-30 06:35 | 51.53515 | 3.64849 | 19302 ft | 384 kts | 2° |
| 2026-04-30 06:35 | 51.56191 | 3.64767 | 18837 ft | 383 kts | 2° |
| 2026-04-30 06:36 | 51.58834 | 3.64685 | 18381 ft | 380 kts | 2° |
| 2026-04-30 06:36 | 51.61381 | 3.64608 | 17966 ft | 378 kts | 2° |
| 2026-04-30 06:36 | 51.63952 | 3.64530 | 17535 ft | 376 kts | 2° |
| 2026-04-30 06:36 | 51.66469 | 3.64451 | 17116 ft | 374 kts | 2° |
| 2026-04-30 06:37 | 51.69077 | 3.64509 | 16678 ft | 368 kts | 11° |
| 2026-04-30 06:37 | 51.71488 | 3.65678 | 16260 ft | 358 kts | 30° |
| 2026-04-30 06:37 | 51.73460 | 3.68028 | 15854 ft | 349 kts | 50° |
| 2026-04-30 06:37 | 51.74839 | 3.71168 | 15458 ft | 344 kts | 61° |
| 2026-04-30 06:38 | 51.76096 | 3.74448 | 15071 ft | 342 kts | 60° |
| 2026-04-30 06:38 | 51.77359 | 3.77697 | 14674 ft | 340 kts | 60° |
| 2026-04-30 06:38 | 51.78623 | 3.80921 | 14268 ft | 338 kts | 60° |
| 2026-04-30 06:38 | 51.79878 | 3.84111 | 13870 ft | 335 kts | 60° |
| 2026-04-30 06:39 | 51.81123 | 3.87274 | 13485 ft | 334 kts | 60° |
| 2026-04-30 06:39 | 51.82370 | 3.90449 | 13103 ft | 332 kts | 60° |
| 2026-04-30 06:39 | 51.83602 | 3.93589 | 12729 ft | 329 kts | 60° |
| 2026-04-30 06:39 | 51.84824 | 3.96706 | 12349 ft | 327 kts | 60° |
| 2026-04-30 06:40 | 51.86024 | 3.99770 | 12149 ft | 316 kts | 60° |
| 2026-04-30 06:40 | 51.87183 | 4.02709 | 12010 ft | 301 kts | 58° |
| 2026-04-30 06:40 | 51.88564 | 4.05201 | 11323 ft | 306 kts | 47° |
| 2026-04-30 06:40 | 51.90196 | 4.07561 | 10321 ft | 319 kts | 45° |
| 2026-04-30 06:41 | 51.91871 | 4.09880 | 9579 ft | 315 kts | 44° |
| 2026-04-30 06:41 | 51.93482 | 4.12125 | 9321 ft | 290 kts | 45° |
| 2026-04-30 06:41 | 51.94938 | 4.14195 | 8870 ft | 276 kts | 46° |
| 2026-04-30 06:41 | 51.96339 | 4.16233 | 8485 ft | 264 kts | 47° |
| 2026-04-30 06:42 | 51.97714 | 4.18264 | 8069 ft | 263 kts | 47° |
| 2026-04-30 06:42 | 51.99060 | 4.20265 | 7643 ft | 261 kts | 47° |
| 2026-04-30 06:42 | 52.00394 | 4.22248 | 7243 ft | 259 kts | 47° |
| 2026-04-30 06:42 | 52.01727 | 4.24230 | 6823 ft | 258 kts | 47° |
| 2026-04-30 06:43 | 52.03052 | 4.26199 | 6393 ft | 257 kts | 47° |
| 2026-04-30 06:43 | 52.04364 | 4.28145 | 5977 ft | 254 kts | 47° |
| 2026-04-30 06:43 | 52.05552 | 4.29911 | 5605 ft | 253 kts | 47° |
| 2026-04-30 06:43 | 52.06335 | 4.31074 | 5358 ft | 252 kts | 47° |
| 2026-04-30 06:44 | 52.07525 | 4.32839 | 4973 ft | 251 kts | 48° |
| 2026-04-30 06:44 | 52.08810 | 4.34756 | 4550 ft | 249 kts | 48° |
| 2026-04-30 06:44 | 52.10085 | 4.36653 | 4136 ft | 246 kts | 48° |
| 2026-04-30 06:44 | 52.11321 | 4.38499 | 3730 ft | 245 kts | 48° |
| 2026-04-30 06:45 | 52.12576 | 4.40373 | 3311 ft | 243 kts | 48° |
| 2026-04-30 06:45 | 52.13808 | 4.42212 | 2980 ft | 239 kts | 48° |
| 2026-04-30 06:45 | 52.15058 | 4.44088 | 2872 ft | 243 kts | 48° |
| 2026-04-30 06:45 | 52.16278 | 4.45907 | 2848 ft | 226 kts | 48° |
| 2026-04-30 06:46 | 52.17406 | 4.47582 | 2847 ft | 212 kts | 49° |
| 2026-04-30 06:46 | 52.18501 | 4.49222 | 2871 ft | 219 kts | 49° |
| 2026-04-30 06:46 | 52.19583 | 4.50857 | 2871 ft | 212 kts | 49° |
| 2026-04-30 06:46 | 52.20561 | 4.52513 | 2863 ft | 193 kts | 56° |
| 2026-04-30 06:47 | 52.21339 | 4.54181 | 2826 ft | 176 kts | 62° |
| 2026-04-30 06:47 | 52.21977 | 4.55740 | 2667 ft | 165 kts | 65° |
| 2026-04-30 06:47 | 52.22583 | 4.57309 | 2438 ft | 165 kts | 65° |
| 2026-04-30 06:47 | 52.23200 | 4.58910 | 2196 ft | 166 kts | 65° |
| 2026-04-30 06:48 | 52.23770 | 4.60366 | 1960 ft | 134 kts | 66° |
| 2026-04-30 06:48 | 52.24235 | 4.61588 | 1795 ft | 128 kts | 67° |
| 2026-04-30 06:48 | 52.24702 | 4.62833 | 1663 ft | 125 kts | 68° |
| 2026-04-30 06:48 | 52.25163 | 4.64003 | 1538 ft | 117 kts | 66° |
| 2026-04-30 06:49 | 52.25595 | 4.65051 | 1367 ft | 112 kts | 67° |
| 2026-04-30 06:49 | 52.26015 | 4.66164 | 1164 ft | 115 kts | 70° |
| 2026-04-30 06:49 | 52.26434 | 4.67344 | 1005 ft | 123 kts | 68° |
| 2026-04-30 06:49 | 52.26876 | 4.68501 | 859 ft | 118 kts | 65° |
| 2026-04-30 06:50 | 52.27341 | 4.69653 | 722 ft | 125 kts | 64° |
| 2026-04-30 06:50 | 52.27809 | 4.70859 | 504 ft | 122 kts | 63° |
| 2026-04-30 06:50 | 52.28259 | 4.72037 | 343 ft | 119 kts | 62° |
| 2026-04-30 06:50 | 52.28689 | 4.73125 | 127 ft | 110 kts | 63° |
| 2026-04-30 06:51 | 52.28928 | 4.73754 | 38 ft | 108 kts | 64° |
| 2026-04-30 06:51 | 52.29482 | 4.75375 | 756 ft | 132 kts | 65° |
| 2026-04-30 06:51 | 52.29817 | 4.76328 | 1355 ft | 156 kts | 66° |
| 2026-04-30 06:51 | 52.30482 | 4.78000 | 1881 ft | 191 kts | 60° |
| 2026-04-30 06:52 | 52.31258 | 4.79627 | 2132 ft | 164 kts | 58° |
| 2026-04-30 06:52 | 52.32069 | 4.81008 | 2501 ft | 171 kts | 47° |
| 2026-04-30 06:52 | 52.33036 | 4.82150 | 3032 ft | 172 kts | 43° |
| 2026-04-30 06:52 | 52.34011 | 4.83268 | 3578 ft | 172 kts | 43° |
| 2026-04-30 06:53 | 52.35005 | 4.84369 | 4098 ft | 176 kts | 36° |
| 2026-04-30 06:53 | 52.36275 | 4.84662 | 4655 ft | 207 kts | 356° |
| 2026-04-30 06:53 | 52.37682 | 4.83515 | 5237 ft | 246 kts | 322° |
| 2026-04-30 06:53 | 52.38712 | 4.81003 | 5786 ft | 285 kts | 290° |
| 2026-04-30 06:54 | 52.38969 | 4.77754 | 6326 ft | 295 kts | 262° |
| 2026-04-30 06:54 | 52.38323 | 4.74579 | 6804 ft | 293 kts | 234° |
| 2026-04-30 06:54 | 52.36955 | 4.72211 | 6958 ft | 284 kts | 210° |
| 2026-04-30 06:54 | 52.35310 | 4.70384 | 6985 ft | 285 kts | 212° |
| 2026-04-30 06:55 | 52.33995 | 4.67974 | 6995 ft | 293 kts | 235° |
| 2026-04-30 06:55 | 52.32989 | 4.65015 | 6989 ft | 293 kts | 237° |
| 2026-04-30 06:55 | 52.31798 | 4.62412 | 6986 ft | 289 kts | 226° |
| 2026-04-30 06:55 | 52.30680 | 4.59603 | 6901 ft | 293 kts | 237° |
| 2026-04-30 06:56 | 52.29713 | 4.56718 | 6622 ft | 291 kts | 237° |
| 2026-04-30 06:56 | 52.28745 | 4.53829 | 6324 ft | 290 kts | 237° |
| 2026-04-30 06:56 | 52.27793 | 4.50994 | 5976 ft | 288 kts | 237° |
| 2026-04-30 06:56 | 52.26818 | 4.48089 | 5580 ft | 286 kts | 237° |
| 2026-04-30 06:57 | 52.25852 | 4.45206 | 5198 ft | 287 kts | 237° |
| 2026-04-30 06:57 | 52.24903 | 4.42388 | 4807 ft | 284 kts | 237° |
| 2026-04-30 06:57 | 52.23747 | 4.39829 | 4425 ft | 271 kts | 215° |
| 2026-04-30 06:57 | 52.22163 | 4.38418 | 4049 ft | 255 kts | 189° |
| 2026-04-30 06:58 | 52.20456 | 4.38193 | 3660 ft | 241 kts | 166° |
| 2026-04-30 06:58 | 52.18865 | 4.39045 | 3278 ft | 231 kts | 145° |
| 2026-04-30 06:58 | 52.17666 | 4.40683 | 2896 ft | 225 kts | 126° |
| 2026-04-30 06:58 | 52.16909 | 4.42927 | 2510 ft | 223 kts | 108° |
| 2026-04-30 06:59 | 52.16710 | 4.45422 | 2133 ft | 226 kts | 86° |
| 2026-04-30 06:59 | 52.17421 | 4.47692 | 1962 ft | 230 kts | 51° |
| 2026-04-30 06:59 | 52.18575 | 4.49331 | 1966 ft | 217 kts | 46° |
| 2026-04-30 06:59 | 52.19682 | 4.50882 | 1973 ft | 201 kts | 49° |
| 2026-04-30 07:00 | 52.20588 | 4.52455 | 1979 ft | 180 kts | 58° |
| 2026-04-30 07:00 | 52.21266 | 4.53932 | 1972 ft | 154 kts | 63° |
| 2026-04-30 07:00 | 52.21858 | 4.55426 | 1978 ft | 151 kts | 65° |
| 2026-04-30 07:00 | 52.22417 | 4.56873 | 1974 ft | 152 kts | 65° |
| 2026-04-30 07:01 | 52.22966 | 4.58299 | 1969 ft | 148 kts | 65° |
| 2026-04-30 07:01 | 52.23514 | 4.59722 | 1988 ft | 148 kts | 66° |
| 2026-04-30 07:01 | 52.24065 | 4.61154 | 1860 ft | 148 kts | 65° |
| 2026-04-30 07:01 | 52.24619 | 4.62596 | 1650 ft | 151 kts | 66° |
| 2026-04-30 07:02 | 52.25140 | 4.63924 | 1462 ft | 130 kts | 66° |
| 2026-04-30 07:02 | 52.25607 | 4.65152 | 1291 ft | 126 kts | 66° |
| 2026-04-30 07:02 | 52.26064 | 4.66337 | 1119 ft | 124 kts | 66° |
| 2026-04-30 07:02 | 52.26521 | 4.67526 | 944 ft | 122 kts | 66° |
| 2026-04-30 07:03 | 52.26978 | 4.68711 | 781 ft | 125 kts | 65° |
| 2026-04-30 07:03 | 52.27442 | 4.69914 | 608 ft | 124 kts | 63° |
| 2026-04-30 07:03 | 52.27902 | 4.71116 | 442 ft | 123 kts | 63° |
| 2026-04-30 07:03 | 52.28362 | 4.72273 | 284 ft | 116 kts | 62° |
| 2026-04-30 07:04 | 52.28786 | 4.73368 | 84 ft | 114 kts | 65° |
| 2026-04-30 07:04 | 52.29215 | 4.74516 | 11 ft | 109 kts | 63° |
| 2026-04-30 07:04 | 52.29585 | 4.75457 | 0 ft | 87 kts | 63° |
| 2026-04-30 07:04 | 52.29826 | 4.76126 | -4 ft | 46 kts | 55° |
| 2026-04-30 07:05 | 52.30146 | 4.76644 | -1 ft | 23 kts | 27° |
| 2026-04-30 07:05 | 52.30167 | 4.76662 | -1 ft | 4 kts | 26° |
| 2026-04-30 07:05 | 52.30216 | 4.76701 | -1 ft | 12 kts | 26° |
| 2026-04-30 07:06 | 52.30312 | 4.76739 | -1 ft | 17 kts | 341° |
| 2026-04-30 07:06 | 52.30390 | 4.76770 | -1 ft | 10 kts | 59° |
| 2026-04-30 07:06 | 52.30437 | 4.76898 | -1 ft | 16 kts | 59° |
| 2026-04-30 07:06 | 52.30510 | 4.77078 | -1 ft | 21 kts | 56° |
| 2026-04-30 07:07 | 52.30579 | 4.77259 | -1 ft | 15 kts | 59° |
| 2026-04-30 07:07 | 52.30638 | 4.77434 | -1 ft | 19 kts | 74° |
| 2026-04-30 07:07 | 52.30713 | 4.77598 | -1 ft | 21 kts | 7° |
| 2026-04-30 07:07 | 52.30879 | 4.77611 | -1 ft | 27 kts | 5° |
| 2026-04-30 07:08 | 52.31043 | 4.77621 | -1 ft | 20 kts | 2° |
| 2026-04-30 07:08 | 52.31093 | 4.77619 | -1 ft | 4 kts | 5° |
| 2026-04-30 07:08 | 52.31138 | 4.77611 | -1 ft | 5 kts | 319° |
| 2026-04-30 07:08 | 52.31147 | 4.77540 | -1 ft | 9 kts | 262° |
| 2026-04-30 07:09 | 52.31102 | 4.77496 | -1 ft | 9 kts | 192° |
| 2026-04-30 07:09 | 52.31076 | 4.77463 | -1 ft | 3 kts | 247° |
| 2026-04-30 07:09 | 52.31070 | 4.77400 | -1 ft | 11 kts | 268° |
| 2026-04-30 07:09 | 52.31073 | 4.77257 | -1 ft | 12 kts | 272° |
| 2026-04-30 07:10 | 52.31078 | 4.77112 | -1 ft | 13 kts | 272° |
| 2026-04-30 07:10 | 52.31083 | 4.77032 | -1 ft | 0 kts | 276° |
| 2026-04-30 07:10 | 52.31085 | 4.76994 | -1 ft | 6 kts | 275° |
| 2026-04-30 07:10 | 52.31087 | 4.76942 | -1 ft | 8 kts | 273° |
| 2026-04-30 07:11 | 52.31056 | 4.76841 | -1 ft | 8 kts | 219° |
| 2026-04-30 07:11 | 52.31025 | 4.76801 | -1 ft | 8 kts | 223° |
| 2026-04-30 07:11 | 52.31023 | 4.76777 | -1 ft | 4 kts | 278° |
| 2026-04-30 07:11 | 52.31033 | 4.76747 | -1 ft | 4 kts | 311° |
| 2026-04-30 07:12 | 52.31052 | 4.76708 | -1 ft | 4 kts | 304° |
| 2026-04-30 07:12 | 52.31057 | 4.76695 | -1 ft | 1 kts | 304° |
| 2026-04-30 07:12 | 52.31061 | 4.76687 | -1 ft | 0 kts | 304° |